Terminal Aerodrome Forecast
Issued by NWS Charleston, WV

Current Version | Previous Version | Graphics & Text | Print | Product List | Glossary On
Versions: 1 2 3 4 5 6 7 8 9 10 11 12 13 14 15 16 17 18 19 20 21 22 23 24 25 26 27 28
000
FTUS41 KRLX 211100 AAB
TAFEKN
TAF AMD
KEKN 211108Z 2111/2206 00000KT 4SM BR SCT040
      TEMPO 2111/2112 2SM BR SCT001
     FM211200 24007KT 6SM BR BKN025
     FM211400 25008KT 6SM SHRA BR VCTS BKN025CB
     FM212000 25010G15KT 6SM TSRA BR BKN025CB
     FM212200 26010KT 6SM SHRA BR VCTS BKN025CB
     FM220100 28008KT 6SM BR BKN025=

USA.gov is the U.S. government's official web portal to all federal, state and local government web resources and services.